createdAt,value
2023-08-26T00:00:45.850Z,467.30
2023-08-26T00:03:12.656Z,407.05
2023-08-26T00:05:39.329Z,363.13
2023-08-26T00:08:06.090Z,295.90
2023-08-26T00:10:32.747Z,264.73
2023-08-26T00:12:59.333Z,298.17
2023-08-26T00:15:25.969Z,313.13
2023-08-26T00:17:52.669Z,341.17
2023-08-26T00:20:22.705Z,251.95
2023-08-26T00:22:49.438Z,325.38
2023-08-26T00:25:16.466Z,399.50
2023-08-26T00:27:43.068Z,148.70
2023-08-26T00:30:09.923Z,307.25
2023-08-26T00:32:36.624Z,277.20
2023-08-26T00:35:05.143Z,220.07
2023-08-26T00:37:32.401Z,234.52
2023-08-26T00:39:58.972Z,335.13
2023-08-26T00:42:25.630Z,312.25
2023-08-26T00:44:52.455Z,240.90
2023-08-26T00:47:19.107Z,275.63
2023-08-26T00:49:45.798Z,306.65
2023-08-26T00:52:12.388Z,222.30
2023-08-26T00:54:38.999Z,219.10
2023-08-26T00:57:06.137Z,206.45
2023-08-26T00:59:33.111Z,190.15
2023-08-26T01:02:00.529Z,227.98
2023-08-26T01:04:27.319Z,229.98
2023-08-26T01:06:53.975Z,211.65
2023-08-26T01:09:20.721Z,231.13
2023-08-26T01:11:50.353Z,269.60
2023-08-26T01:14:25.979Z,238.05
2023-08-26T01:16:52.660Z,136.38
2023-08-26T01:19:32.798Z,148.07
2023-08-26T01:22:01.712Z,139.60
2023-08-26T01:24:28.395Z,215.05
2023-08-26T01:26:54.928Z,178.10
2023-08-26T01:29:21.445Z,152.60
2023-08-26T01:31:52.100Z,166.82
2023-08-26T01:34:21.438Z,254.73
2023-08-26T01:36:48.954Z,298.63
2023-08-26T01:39:16.540Z,363.02
2023-08-26T01:42:02.210Z,302.88
2023-08-26T01:44:29.782Z,305.23
2023-08-26T01:46:56.649Z,287.75
2023-08-26T01:49:24.193Z,206.38
2023-08-26T01:51:50.995Z,328.33
2023-08-26T01:54:17.512Z,367.20
2023-08-26T01:56:43.995Z,392.40
2023-08-26T01:59:10.617Z,360.35
2023-08-26T02:01:37.345Z,441.13
2023-08-26T02:04:03.975Z,453.30
2023-08-26T02:06:30.510Z,384.05
2023-08-26T02:08:57.028Z,335.98
2023-08-26T02:11:23.553Z,360.95
2023-08-26T02:13:50.128Z,376.33
2023-08-26T02:16:16.722Z,422.95
2023-08-26T02:18:43.341Z,327.33
2023-08-26T02:21:10.234Z,469.88
2023-08-26T02:23:36.746Z,476.98
2023-08-26T02:26:03.282Z,461.15
2023-08-26T02:28:30.006Z,430.65
2023-08-26T02:30:56.673Z,624.92
2023-08-26T02:33:25.501Z,614.75
2023-08-26T02:35:52.020Z,587.30
2023-08-26T02:38:18.522Z,496.30
2023-08-26T02:40:54.787Z,702.63
2023-08-26T02:43:21.992Z,779.95
2023-08-26T02:45:55.103Z,764.22
2023-08-26T02:48:22.134Z,722.28
2023-08-26T02:50:48.696Z,551.03
2023-08-26T02:53:15.535Z,583.03
2023-08-26T02:55:42.023Z,534.80
2023-08-26T02:58:08.640Z,564.63
2023-08-26T03:00:35.143Z,535.00
2023-08-26T03:03:01.842Z,552.47
2023-08-26T03:05:28.421Z,498.00
2023-08-26T03:07:55.073Z,444.73
2023-08-26T03:10:21.857Z,448.90
2023-08-26T03:12:48.417Z,416.77
2023-08-26T03:15:14.973Z,298.77
2023-08-26T03:17:41.612Z,338.23
2023-08-26T03:20:08.373Z,307.00
2023-08-26T03:22:34.878Z,303.50
2023-08-26T03:25:01.486Z,367.52
2023-08-26T03:27:28.033Z,297.75
2023-08-26T03:29:54.574Z,384.77
2023-08-26T03:32:21.139Z,235.50
2023-08-26T03:34:47.897Z,320.52
2023-08-26T03:37:14.444Z,222.23
2023-08-26T03:39:41.010Z,280.90
2023-08-26T03:42:07.564Z,287.13
2023-08-26T03:44:34.105Z,312.30
2023-08-26T03:47:00.641Z,290.20
2023-08-26T03:49:27.259Z,197.38
2023-08-26T03:51:53.858Z,279.42
2023-08-26T03:54:20.447Z,234.07
2023-08-26T03:56:46.994Z,204.15
2023-08-26T03:59:13.536Z,181.10
2023-08-26T04:01:40.126Z,165.55
2023-08-26T04:04:06.838Z,210.27
2023-08-26T04:06:34.718Z,189.90
2023-08-26T04:09:03.655Z,303.77
2023-08-26T04:11:30.309Z,312.67
2023-08-26T04:13:57.293Z,247.80
2023-08-26T04:16:23.911Z,224.32
2023-08-26T04:18:50.471Z,254.38
2023-08-26T04:21:17.021Z,111.70
2023-08-26T04:23:43.545Z,222.57
2023-08-26T04:26:10.029Z,310.35
2023-08-26T04:28:36.522Z,210.48
2023-08-26T04:31:03.328Z,180.73
2023-08-26T04:33:30.666Z,84.60
2023-08-26T04:35:57.343Z,217.25
2023-08-26T04:38:23.838Z,184.40
2023-08-26T04:40:50.350Z,238.60
2023-08-26T04:43:16.913Z,80.60
2023-08-26T04:45:43.483Z,164.95
2023-08-26T04:48:10.676Z,234.43
2023-08-26T04:50:37.862Z,130.63
2023-08-26T04:53:04.739Z,182.82
2023-08-26T04:55:34.047Z,211.50
2023-08-26T04:58:03.966Z,178.02
2023-08-26T05:00:30.620Z,166.70
2023-08-26T05:02:57.325Z,33.10
2023-08-26T05:05:23.999Z,57.30
2023-08-26T05:07:50.611Z,282.30
2023-08-26T05:10:17.181Z,246.10
2023-08-26T05:12:43.679Z,131.75
2023-08-26T05:15:10.263Z,313.48
2023-08-26T05:17:36.958Z,104.20
2023-08-26T05:20:03.959Z,69.97
2023-08-26T05:22:30.514Z,231.45
2023-08-26T05:24:57.185Z,143.40
2023-08-26T05:27:24.041Z,226.30
2023-08-26T05:29:50.698Z,216.00
2023-08-26T05:32:17.203Z,148.98
2023-08-26T05:34:43.902Z,90.60
2023-08-26T05:37:10.693Z,98.68
2023-08-26T05:39:37.209Z,82.10
2023-08-26T05:42:03.773Z,149.90
2023-08-26T05:44:30.330Z,181.32
2023-08-26T05:46:56.944Z,200.63
2023-08-26T05:49:23.521Z,242.75
2023-08-26T05:51:50.031Z,183.50
2023-08-26T05:54:16.595Z,164.70
2023-08-26T05:56:43.092Z,85.10
2023-08-26T05:59:09.754Z,199.13
2023-08-26T06:01:36.438Z,164.32
2023-08-26T06:04:03.260Z,164.50
2023-08-26T06:06:30.352Z,63.72
2023-08-26T06:08:57.682Z,34.95
2023-08-26T06:11:24.897Z,125.07
2023-08-26T06:13:52.112Z,195.30
2023-08-26T06:16:20.376Z,237.60
2023-08-26T06:18:49.865Z,58.10
2023-08-26T06:21:16.754Z,203.82
2023-08-26T06:23:43.260Z,86.45
2023-08-26T06:26:09.788Z,79.63
2023-08-26T06:28:36.382Z,81.65
2023-08-26T06:31:03.729Z,50.38
2023-08-26T06:33:30.339Z,104.45
2023-08-26T06:35:56.829Z,29.35
2023-08-26T06:38:23.848Z,49.10
2023-08-26T06:40:53.715Z,34.80
2023-08-26T06:43:20.286Z,43.65
2023-08-26T06:45:46.993Z,44.30
2023-08-26T06:48:13.618Z,66.88
2023-08-26T06:50:41.780Z,68.20
2023-08-26T06:53:08.249Z,70.65
2023-08-26T06:55:34.760Z,133.95
2023-08-26T06:58:01.246Z,188.00
2023-08-26T07:00:28.039Z,153.98
2023-08-26T07:02:54.612Z,80.38
2023-08-26T07:05:21.167Z,126.80
2023-08-26T07:07:47.758Z,152.25
2023-08-26T07:10:14.483Z,156.88
2023-08-26T07:12:41.064Z,106.38
2023-08-26T07:15:07.806Z,218.68
2023-08-26T07:17:34.583Z,166.40
2023-08-26T07:20:02.440Z,174.02
2023-08-26T07:22:30.235Z,118.05
2023-08-26T07:24:57.110Z,103.50
2023-08-26T07:27:24.611Z,184.25
2023-08-26T07:29:51.238Z,104.65
2023-08-26T07:32:17.775Z,169.48
2023-08-26T07:34:44.326Z,111.65
2023-08-26T07:37:10.812Z,113.88
2023-08-26T07:39:37.395Z,89.38
2023-08-26T07:42:04.550Z,33.95
2023-08-26T07:44:31.039Z,67.50
2023-08-26T07:46:58.237Z,31.23
2023-08-26T07:49:24.978Z,37.05
2023-08-26T07:51:51.582Z,42.00
2023-08-26T07:54:18.132Z,73.72
2023-08-26T07:56:44.704Z,63.33
2023-08-26T07:59:11.246Z,114.03
2023-08-26T08:01:37.720Z,184.50
2023-08-26T08:04:04.348Z,232.68
2023-08-26T08:06:30.933Z,124.13
2023-08-26T08:08:57.427Z,171.38
2023-08-26T08:11:23.958Z,203.63
2023-08-26T08:13:51.214Z,364.65
2023-08-26T08:16:17.789Z,205.20
2023-08-26T08:18:44.348Z,94.40
2023-08-26T08:21:10.895Z,33.10
2023-08-26T08:23:38.314Z,158.38
2023-08-26T08:26:04.914Z,149.68
2023-08-26T08:28:31.737Z,65.22
2023-08-26T08:30:58.353Z,125.35
2023-08-26T08:33:24.984Z,119.88
2023-08-26T08:35:51.900Z,115.25
2023-08-26T08:38:18.429Z,94.32
2023-08-26T08:40:45.155Z,104.45
2023-08-26T08:43:11.888Z,106.53
2023-08-26T08:45:38.765Z,109.13
2023-08-26T08:48:06.143Z,144.27
2023-08-26T08:50:32.905Z,127.25
2023-08-26T08:52:59.829Z,248.25
2023-08-26T08:55:26.834Z,283.88
2023-08-26T08:57:55.110Z,198.38
2023-08-26T09:00:24.609Z,97.50
2023-08-26T09:02:52.568Z,91.82
2023-08-26T09:05:19.613Z,156.00
2023-08-26T09:07:47.616Z,56.17
2023-08-26T09:10:14.268Z,77.80
2023-08-26T09:12:40.890Z,83.55
2023-08-26T09:15:07.868Z,41.70
2023-08-26T09:17:34.530Z,107.60
2023-08-26T09:20:01.947Z,117.30
2023-08-26T09:22:29.552Z,130.13
2023-08-26T09:24:57.016Z,303.10
2023-08-26T09:27:23.697Z,241.18
2023-08-26T09:29:50.951Z,193.85
2023-08-26T09:32:31.378Z,237.80
2023-08-26T09:35:08.756Z,184.93
2023-08-26T09:37:35.413Z,105.65
2023-08-26T09:40:02.032Z,52.47
2023-08-26T09:42:29.493Z,117.55
2023-08-26T09:44:59.355Z,202.10
2023-08-26T09:47:30.327Z,153.85
2023-08-26T09:49:56.943Z,141.32
2023-08-26T09:52:24.374Z,89.85
2023-08-26T09:54:52.575Z,40.25
2023-08-26T09:57:19.437Z,65.38
2023-08-26T09:59:46.197Z,43.20
2023-08-26T10:02:32.160Z,43.97
2023-08-26T10:05:01.680Z,40.13
2023-08-26T10:07:31.486Z,57.10
2023-08-26T10:10:01.156Z,34.45
2023-08-26T10:12:33.758Z,34.03
2023-08-26T10:15:02.203Z,39.45
2023-08-26T10:17:29.686Z,48.42
2023-08-26T10:19:56.992Z,30.05
2023-08-26T10:22:23.829Z,44.13
2023-08-26T10:24:50.390Z,40.03
2023-08-26T10:27:17.524Z,36.63
2023-08-26T10:29:44.584Z,66.68
2023-08-26T10:32:18.554Z,63.35
2023-08-26T10:34:55.449Z,85.57
2023-08-26T10:37:26.274Z,30.90
2023-08-26T10:39:53.304Z,22.83
2023-08-26T10:42:20.319Z,38.30
2023-08-26T10:44:58.796Z,38.05
2023-08-26T10:47:36.135Z,85.40
2023-08-26T10:50:15.759Z,79.60
2023-08-26T10:52:43.021Z,98.65
2023-08-26T10:55:14.089Z,77.03
2023-08-26T10:58:00.751Z,104.80
2023-08-26T11:00:27.491Z,46.33
2023-08-26T11:02:55.639Z,37.00
2023-08-26T11:05:22.503Z,31.70
2023-08-26T11:07:49.142Z,116.13
2023-08-26T11:10:25.732Z,166.70
2023-08-26T11:12:52.278Z,188.93
2023-08-26T11:15:18.816Z,132.52
2023-08-26T11:17:51.713Z,148.10
2023-08-26T11:20:19.022Z,128.05
2023-08-26T11:22:45.869Z,141.98
2023-08-26T11:25:16.423Z,90.82
2023-08-26T11:27:43.037Z,58.58
2023-08-26T11:30:10.349Z,36.35
2023-08-26T11:32:37.924Z,68.88
2023-08-26T11:35:09.012Z,38.33
2023-08-26T11:37:43.221Z,83.60
2023-08-26T11:40:10.685Z,56.78
2023-08-26T11:42:37.475Z,81.93
2023-08-26T11:45:08.876Z,39.72
2023-08-26T11:47:35.666Z,64.35
2023-08-26T11:50:02.475Z,34.70
2023-08-26T11:52:33.396Z,50.03
2023-08-26T11:54:59.973Z,50.95
2023-08-26T11:57:26.635Z,41.08
2023-08-26T11:59:53.117Z,26.38
2023-08-26T12:02:23.614Z,40.90
2023-08-26T12:04:56.442Z,51.15
2023-08-26T12:07:22.963Z,43.13
2023-08-26T12:09:49.507Z,33.55
2023-08-26T12:12:18.831Z,35.38
2023-08-26T12:14:45.395Z,74.43
2023-08-26T12:17:11.965Z,30.10
2023-08-26T12:19:38.648Z,90.90
2023-08-26T12:22:06.343Z,30.95
2023-08-26T12:24:32.907Z,95.22
2023-08-26T12:27:07.765Z,43.95
2023-08-26T12:29:34.252Z,71.85
2023-08-26T12:32:00.811Z,30.27
2023-08-26T12:34:27.602Z,38.90
2023-08-26T12:36:54.781Z,48.80
2023-08-26T12:39:21.381Z,31.80
2023-08-26T12:41:50.785Z,27.38
2023-08-26T12:44:17.619Z,36.63
2023-08-26T12:46:44.236Z,60.63
2023-08-26T12:49:22.786Z,180.32
2023-08-26T12:51:53.075Z,241.20
2023-08-26T12:54:19.596Z,185.02
2023-08-26T12:56:46.182Z,204.82
2023-08-26T12:59:13.606Z,140.15
2023-08-26T13:01:40.430Z,146.90
2023-08-26T13:04:07.097Z,195.82
2023-08-26T13:06:33.682Z,192.50
2023-08-26T13:09:00.233Z,307.42
2023-08-26T13:11:26.787Z,203.25
2023-08-26T13:13:53.266Z,148.77
2023-08-26T13:16:19.883Z,180.95
2023-08-26T13:18:46.449Z,129.23
2023-08-26T13:21:13.346Z,185.77
2023-08-26T13:23:39.927Z,329.48
2023-08-26T13:26:06.483Z,332.45
2023-08-26T13:28:33.028Z,288.10
2023-08-26T13:31:02.562Z,124.15
2023-08-26T13:33:29.464Z,310.92
2023-08-26T13:35:56.188Z,153.05
2023-08-26T13:38:22.796Z,270.55
2023-08-26T13:40:49.301Z,187.05
2023-08-26T13:43:15.911Z,282.33
2023-08-26T13:45:42.463Z,216.10
2023-08-26T13:48:09.172Z,244.38
2023-08-26T13:50:35.851Z,185.35
2023-08-26T13:53:02.524Z,28.88
2023-08-26T13:55:29.101Z,105.95
2023-08-26T13:57:56.203Z,57.00
2023-08-26T14:00:23.177Z,65.82
2023-08-26T14:02:49.974Z,300.13
2023-08-26T14:05:16.624Z,196.00
2023-08-26T14:07:43.968Z,98.10
2023-08-26T14:10:10.688Z,38.25
2023-08-26T14:12:40.438Z,137.23
2023-08-26T14:15:08.273Z,201.15
2023-08-26T14:17:35.095Z,146.70
2023-08-26T14:20:01.938Z,69.95
2023-08-26T14:22:28.688Z,128.88
2023-08-26T14:24:55.228Z,27.52
2023-08-26T14:27:21.812Z,38.33
2023-08-26T14:29:48.330Z,46.55
2023-08-26T14:32:14.895Z,215.05
2023-08-26T14:34:41.500Z,225.63
2023-08-26T14:37:08.089Z,204.15
2023-08-26T14:39:38.908Z,132.18
2023-08-26T14:42:05.641Z,90.10
2023-08-26T14:44:34.314Z,172.90
2023-08-26T14:47:01.172Z,198.27
2023-08-26T14:49:27.941Z,222.60
2023-08-26T14:51:54.490Z,28.30
2023-08-26T14:54:21.191Z,200.13
2023-08-26T14:56:47.725Z,205.02
2023-08-26T14:59:14.647Z,191.73
2023-08-26T15:01:41.735Z,127.90
2023-08-26T15:04:09.305Z,178.57
2023-08-26T15:06:35.847Z,138.20
2023-08-26T15:09:02.519Z,137.55
2023-08-26T15:11:29.194Z,87.63
2023-08-26T15:13:55.882Z,39.45
2023-08-26T15:16:22.520Z,37.25
2023-08-26T15:18:49.115Z,33.60
2023-08-26T15:21:16.152Z,25.42
2023-08-26T15:23:43.232Z,109.32
2023-08-26T15:26:09.889Z,37.08
2023-08-26T15:28:36.515Z,121.47
2023-08-26T15:31:03.676Z,32.08
2023-08-26T15:33:31.721Z,64.28
2023-08-26T15:35:58.271Z,53.20
2023-08-26T15:38:25.163Z,85.15
2023-08-26T15:40:55.528Z,126.78
2023-08-26T15:43:22.172Z,116.72
2023-08-26T15:45:48.920Z,128.70
2023-08-26T15:48:15.556Z,122.22
2023-08-26T15:50:42.507Z,140.38
2023-08-26T15:53:09.100Z,88.70
2023-08-26T15:55:39.208Z,91.40
2023-08-26T15:58:07.342Z,72.05
2023-08-26T16:00:34.642Z,108.75
2023-08-26T16:03:01.912Z,123.63
2023-08-26T16:05:28.841Z,51.58
2023-08-26T16:07:55.684Z,40.50
2023-08-26T16:10:22.376Z,42.60
2023-08-26T16:12:49.042Z,37.00
2023-08-26T16:15:15.783Z,44.45
2023-08-26T16:17:42.335Z,59.42
2023-08-26T16:20:09.299Z,45.58
2023-08-26T16:22:35.845Z,97.15
2023-08-26T16:25:02.450Z,36.47
2023-08-26T16:27:29.018Z,52.50
2023-08-26T16:29:55.605Z,29.45
2023-08-26T16:32:22.291Z,42.20
2023-08-26T16:34:49.163Z,47.55
2023-08-26T16:37:16.051Z,36.85
2023-08-26T16:39:42.739Z,75.57
2023-08-26T16:42:09.348Z,30.23
2023-08-26T16:44:36.145Z,84.40
2023-08-26T16:47:02.988Z,26.13
2023-08-26T16:49:30.065Z,62.55
2023-08-26T16:51:56.599Z,32.03
2023-08-26T16:54:23.312Z,46.25
2023-08-26T16:56:49.857Z,59.97
2023-08-26T16:59:16.463Z,52.72
2023-08-26T17:01:43.126Z,103.72
2023-08-26T17:04:09.660Z,99.97
2023-08-26T17:06:36.519Z,135.68
2023-08-26T17:09:03.552Z,106.47
2023-08-26T17:11:31.002Z,85.13
2023-08-26T17:13:57.534Z,74.80
2023-08-26T17:16:24.323Z,76.93
2023-08-26T17:18:50.837Z,70.28
2023-08-26T17:21:17.425Z,39.60
2023-08-26T17:23:44.075Z,71.57
2023-08-26T17:26:10.646Z,45.13
2023-08-26T17:28:37.418Z,94.50
2023-08-26T17:31:04.620Z,48.15
2023-08-26T17:33:31.298Z,108.35
2023-08-26T17:35:57.899Z,54.50
2023-08-26T17:38:24.553Z,52.22
2023-08-26T17:40:52.594Z,36.00
2023-08-26T17:43:19.180Z,37.10
2023-08-26T17:45:48.927Z,71.38
2023-08-26T17:48:16.292Z,37.58
2023-08-26T17:50:50.053Z,84.20
2023-08-26T17:53:16.740Z,38.30
2023-08-26T17:55:43.793Z,114.63
2023-08-26T17:58:10.425Z,53.05
2023-08-26T18:00:39.542Z,92.20
2023-08-26T18:03:07.947Z,52.13
2023-08-26T18:05:34.912Z,97.95
2023-08-26T18:08:02.305Z,55.15
2023-08-26T18:10:29.231Z,72.22
2023-08-26T18:12:56.374Z,36.45
2023-08-26T18:15:23.223Z,47.58
2023-08-26T18:17:49.886Z,59.40
2023-08-26T18:20:16.724Z,48.40
2023-08-26T18:22:43.660Z,99.65
2023-08-26T18:25:10.405Z,36.17
2023-08-26T18:27:37.133Z,79.85
2023-08-26T18:30:04.529Z,41.13
2023-08-26T18:32:31.214Z,75.90
2023-08-26T18:34:57.806Z,37.45
2023-08-26T18:37:24.419Z,38.10
2023-08-26T18:39:50.941Z,39.78
2023-08-26T18:42:17.580Z,45.80
2023-08-26T18:44:46.232Z,81.88
2023-08-26T18:47:12.837Z,69.53
2023-08-26T18:49:39.365Z,95.95
2023-08-26T18:52:06.372Z,55.17
2023-08-26T18:54:33.327Z,100.30
2023-08-26T18:56:59.942Z,69.20
2023-08-26T18:59:26.705Z,65.15
2023-08-26T19:01:53.330Z,70.43
2023-08-26T19:04:20.271Z,76.85
2023-08-26T19:06:47.583Z,72.72
2023-08-26T19:09:14.287Z,93.72
2023-08-26T19:11:40.921Z,110.45
2023-08-26T19:14:08.770Z,95.20
2023-08-26T19:16:36.844Z,147.20
2023-08-26T19:19:06.659Z,91.20
2023-08-26T19:21:33.431Z,113.25
2023-08-26T19:24:01.407Z,56.25
2023-08-26T19:26:28.757Z,75.15
2023-08-26T19:28:55.465Z,78.63
2023-08-26T19:31:22.171Z,61.38
2023-08-26T19:33:48.950Z,34.10
2023-08-26T19:36:15.669Z,30.83
2023-08-26T19:38:42.404Z,99.95
2023-08-26T19:41:09.053Z,38.65
2023-08-26T19:43:35.702Z,72.28
2023-08-26T19:46:02.480Z,39.35
2023-08-26T19:48:30.161Z,46.08
2023-08-26T19:50:59.353Z,29.00
2023-08-26T19:53:26.262Z,33.00
2023-08-26T19:55:55.109Z,27.77
2023-08-26T19:58:21.651Z,48.58
2023-08-26T20:00:48.288Z,55.85
2023-08-26T20:03:14.933Z,37.95
2023-08-26T20:05:41.487Z,53.95
2023-08-26T20:08:08.081Z,39.50
2023-08-26T20:10:34.614Z,61.55
2023-08-26T20:13:01.124Z,35.88
2023-08-26T20:15:27.714Z,38.05
2023-08-26T20:17:54.542Z,29.20
2023-08-26T20:20:21.073Z,33.90
2023-08-26T20:22:47.675Z,31.05
2023-08-26T20:25:14.181Z,26.70
2023-08-26T20:27:40.781Z,58.00
2023-08-26T20:30:08.800Z,33.78
2023-08-26T20:32:36.372Z,103.60
2023-08-26T20:35:03.271Z,31.23
2023-08-26T20:37:30.009Z,44.08
2023-08-26T20:39:56.565Z,29.25
2023-08-26T20:42:25.829Z,22.88
2023-08-26T20:44:52.484Z,32.47
2023-08-26T20:47:19.081Z,26.40
2023-08-26T20:49:45.921Z,93.38
2023-08-26T20:52:12.928Z,29.15
2023-08-26T20:54:39.655Z,102.68
2023-08-26T20:57:06.269Z,30.58
2023-08-26T20:59:32.995Z,88.18
2023-08-26T21:01:59.814Z,25.00
2023-08-26T21:04:26.662Z,28.20
2023-08-26T21:06:54.362Z,36.70
2023-08-26T21:09:21.079Z,71.07
2023-08-26T21:11:47.775Z,33.28
2023-08-26T21:14:14.473Z,43.90
2023-08-26T21:16:41.128Z,73.50
2023-08-26T21:19:07.747Z,33.47
2023-08-26T21:21:34.391Z,62.55
2023-08-26T21:24:01.090Z,31.17
2023-08-26T21:26:27.974Z,54.80
2023-08-26T21:28:54.734Z,39.83
2023-08-26T21:31:21.333Z,36.38
2023-08-26T21:33:48.114Z,49.80
2023-08-26T21:36:14.605Z,29.65
2023-08-26T21:38:41.096Z,54.92
2023-08-26T21:41:07.621Z,42.63
2023-08-26T21:43:34.195Z,71.47
2023-08-26T21:46:01.321Z,42.88
2023-08-26T21:48:28.136Z,44.80
2023-08-26T21:50:54.912Z,30.65
2023-08-26T21:53:21.665Z,39.75
2023-08-26T21:55:54.822Z,31.33
2023-08-26T21:58:21.571Z,49.10
2023-08-26T22:00:48.374Z,44.53
2023-08-26T22:03:15.161Z,42.28
2023-08-26T22:05:41.995Z,53.13
2023-08-26T22:08:09.079Z,41.67
2023-08-26T22:10:36.302Z,100.82
2023-08-26T22:13:07.052Z,27.17
2023-08-26T22:15:39.481Z,60.67
2023-08-26T22:18:07.141Z,27.45
2023-08-26T22:20:35.857Z,72.65
2023-08-26T22:23:02.623Z,28.65
2023-08-26T22:25:29.400Z,45.33
2023-08-26T22:27:56.175Z,37.25
2023-08-26T22:30:23.265Z,36.83
2023-08-26T22:32:50.178Z,28.27
2023-08-26T22:35:16.999Z,31.00
2023-08-26T22:37:44.380Z,53.80
2023-08-26T22:40:15.987Z,29.90
2023-08-26T22:42:42.630Z,54.47
2023-08-26T22:45:09.483Z,25.95
2023-08-26T22:47:36.437Z,67.78
2023-08-26T22:50:04.949Z,52.63
2023-08-26T22:52:32.600Z,77.43
2023-08-26T22:54:59.880Z,42.58
2023-08-26T22:57:26.671Z,33.35
2023-08-26T22:59:56.722Z,61.38
2023-08-26T23:02:23.439Z,68.40
2023-08-26T23:04:53.282Z,73.78
2023-08-26T23:07:20.135Z,84.78
2023-08-26T23:09:46.781Z,68.70
2023-08-26T23:12:13.425Z,54.72
2023-08-26T23:14:40.045Z,74.80
2023-08-26T23:17:06.744Z,86.72
2023-08-26T23:19:33.611Z,71.32
2023-08-26T23:22:00.332Z,34.83
2023-08-26T23:24:26.954Z,38.60
2023-08-26T23:26:53.586Z,33.38
2023-08-26T23:29:20.227Z,39.50
2023-08-26T23:31:47.352Z,33.88
2023-08-26T23:34:18.501Z,47.80
2023-08-26T23:36:46.179Z,68.35
2023-08-26T23:39:12.777Z,27.85
2023-08-26T23:41:39.416Z,53.45
2023-08-26T23:44:06.296Z,39.80
2023-08-26T23:46:33.006Z,53.60
2023-08-26T23:48:59.689Z,34.55
2023-08-26T23:51:26.336Z,36.53
2023-08-26T23:53:53.072Z,34.85
2023-08-26T23:56:19.750Z,31.08
2023-08-26T23:58:46.419Z,52.60
